ADDS METAR Data INFO
IDs: Format: Raw Decoded Include TAF

Data at: 2050 UTC 24 Jun 2018

KAFW 241953Z 16022G32KT 10SM FEW250 37/20 A2976 RMK AO2 PK WND 16032/1942 SLP059 T03670200 $
KAFW 241853Z 16019G28KT 10SM FEW044 FEW250 35/22 A2980 RMK AO2 PK WND 15029/1815 SLP073 T03500217 $
KAFW 241753Z 17014G25KT 10SM FEW044 SCT250 33/22 A2983 RMK AO2 PK WND 14026/1738 SLP083 T03330217 10339 20272 58007 $
KAFW 241653Z 17014G24KT 10SM SCT042 BKN250 33/21 A2984 RMK AO2 PK WND 17027/1554 SLP087 T03280211 $
KAFW 241553Z 16015G22KT 10SM BKN035 BKN250 31/22 A2986 RMK AO2 SLP091 T03060217 $
KAFW 241453Z 17015KT 10SM BKN033 BKN220 30/22 A2985 RMK AO2 SLP091 T03000217 50025 $
KAFW 241353Z 17009KT 10SM BKN033 BKN220 28/21 A2987 RMK AO2 SLP096 T02830211 $
KAFW 241253Z 17012KT 10SM BKN034 BKN250 27/21 A2984 RMK AO2 SLP085 T02720211 $
KAFW 241153Z 19016G25KT 9SM BKN031 BKN250 27/22 A2978 RMK AO2 SLP065 60000 T02720217 10300 20272 51035 $
KAFW 241122Z 18016KT 10SM BKN031 BKN250 28/22 A2978 RMK AO2 T02780222 $
KAFW 241053Z COR 20012KT 10SM SCT029 SCT250 28/22 A2976 RMK AO2 SLP059 T02780222 $
KAFW 240953Z 17016G24KT 10SM SCT250 27/22 A2969 RMK AO2 PK WND 16027/0922 SLP035 T02720222 $
KAFW 240936Z 17016G25KT 10SM SCT027 28/22 A2968 RMK AO2 PK WND 16027/0922 T02780222 $
KAFW 240905Z 14014G19KT 10SM BKN027 28/22 A2967 RMK AO2 T02780222 $
KAFW 240853Z 12009G24KT 10SM FEW110 BKN250 28/23 A2967 RMK AO2 PK WND 18035/0754 SLP029 60000 T02780228 55040 $
KAFW 240753Z 17029G37KT 10SM FEW110 BKN250 28/23 A2962 RMK AO2 PK WND 18046/0705 RAE28 TSE28 SLP011 TS DSIPTD P0000 T02780228 $
KAFW 240728Z 17033G45KT 10SM FEW110 BKN250 28/23 A2962 RMK AO2 PK WND 18046/0705 RAE28 TSE28 TS DSIPTD P0000 T02780228 $
KAFW 240653Z COR 17030G38KT 10SM -TSRA FEW065CB SCT100 BKN250 28/23 A2968 RMK AO2 PK WND 18038/0653 LTG DSNT SE AND S RAB29 TSB08 PRESFR SLP032 FRQ LTGICCGCA SE-S TS SE-S MOV E P0000 T02780228 $
KAFW 240608Z 18022G26KT 10SM TS FEW065CB SCT100 BKN250 30/22 A2978 RMK AO2 PK WND 18026/0607 LTG DSNT SW TSB08 FRQ LTGICCG W TS W MOV E T03000222 $
KAFW 240553Z 18019G24KT 10SM FEW065 BKN250 30/22 A2979 RMK AO2 LTG DSNT SW AND W SLP070 FRQ LTGIC DSNT SW-NW CB DSNT SW-NW MOV E T03000222 10361 20300 403720250 50023 $
KAFW 240453Z 16017KT 10SM FEW065 BKN250 31/22 A2980 RMK AO2 PK WND 16029/0410 PRESRR SLP072 OCNL LTGIC DSNT W CB DSNT W MOV E T03060217 $
KAFW 240353Z 15020KT 10SM FEW070 BKN250 32/21 A2974 RMK AO2 PK WND 15027/0343 SLP053 T03170211 $
KAFW 240253Z 15018G25KT 10SM FEW070 SCT250 33/20 A2972 RMK AO2 PK WND 15026/0233 SLP047 T03280200 53001 $
KAFW 240153Z 14015KT 10SM FEW070 FEW250 33/19 A2971 RMK AO2 SLP042 T03330194 $
KAFW 240053Z 15016KT 10SM FEW070 34/19 A2972 RMK AO2 SLP045 T03440194 $
KAFW 232353Z 17014KT 10SM SCT070 35/19 A2972 RMK AO2 SLP046 T03500189 10372 20317 55008 $
KAFW 232253Z 18018G23KT 10SM FEW070 37/18 A2971 RMK AO2 PK WND 17031/2158 SLP043 T03670178 $
KAFW 232153Z 15017G25KT 10SM SCT070 37/19 A2973 RMK AO2 SLP048 T03720194 $
KAFW 232053Z 16017G23KT 10SM BKN060 36/20 A2974 RMK AO2 PK WND 18027/2032 SLP054 T03560200 56025 $
KAFW 231953Z 17017G22KT 10SM SCT040 BKN065 36/21 A2976 RMK AO2 PK WND 16026/1912 SLP056 T03560211 $
KAFW 231853Z 15014KT 10SM FEW035 SCT065 33/23 A2979 RMK AO2 SLP067 MDT CU ALQDS T03330228 $
KAFW 231753Z 11012KT 10SM FEW036 FEW060 32/23 A2982 RMK AO2 SLP079 60000 T03170228 10317 20250 58018 $
KAFW 231653Z 07010KT 10SM FEW060 SCT210 30/22 A2986 RMK AO2 SLP092 T03000217 $
KAFW 231553Z 07011KT 10SM FEW060 BKN210 29/21 A2987 RMK AO2 SLP096 T02890206 $
KAFW 231453Z 05013KT 10SM BKN055 BKN210 27/21 A2987 RMK AO2 SLP099 60000 T02670206 51019 $
KAFW 231353Z 06009KT 10SM FEW035TCU BKN055 26/19 A2988 RMK AO2 RAB02E38 SLP099 CB DSNT N-NE MOV E TCU W P0000 T02560194 $
KAFW 231339Z 05011KT 10SM FEW024 SCT033 BKN045 26/19 A2987 RMK AO2 RAB02E38 CB DSNT N-NE MOV E P0000 T02560194 $
KAFW 231253Z 03010KT 10SM BKN020 OVC025 25/19 A2986 RMK AO2 SLP094 CB DSNT NW-NE MOV E T02500194 $
KAFW 231153Z 03007KT 10SM BKN024 BKN037 26/19 A2982 RMK AO2 SLP078 T02560194 10311 20250 53001 $
KAFW 231053Z 09008KT 10SM SCT044 25/19 A2980 RMK AO2 SLP071 T02500194 $
KAFW 230953Z 06012KT 10SM FEW300 25/19 A2982 RMK AO2 SLP080 T02500189 $
KAFW 230853Z 04016KT 10SM FEW300 26/19 A2982 RMK AO2 PK WND 01027/0821 WSHFT 0751 SLP077 OUTFLOW BNDRY T02610189 53033 $